Time;durP1;ratioP1;P1;durP2;ratioP2;P2;SDS_P1;SDS_P2;PMS_P1;PMS_P2;Temp;Humidity;BMP_temperature;BMP_pressure;BME280_temperature;BME280_humidity;BME280_pressure;Samples;Min_cycle;Max_cycle;Signal;HPM_P1;HPM_P2
2022/03/03 00:00:08;;;;;;;6.90;4.82;;;21.20;37.50;;;;;;5035690;28;20049;-60
2022/03/03 00:02:39;;;;;;;8.45;6.05;;;21.20;37.50;;;;;;5042984;28;20064;-61
2022/03/03 00:05:08;;;;;;;10.02;6.68;;;21.20;37.50;;;;;;5032713;28;20041;-60
2022/03/03 00:07:36;;;;;;;7.32;5.15;;;21.10;37.40;;;;;;5045453;28;20059;-60
2022/03/03 00:10:04;;;;;;;7.93;5.88;;;21.10;37.40;;;;;;5044069;28;20045;-60
2022/03/03 00:12:31;;;;;;;7.72;5.35;;;21.10;37.40;;;;;;5060816;28;20146;-60
2022/03/03 00:15:00;;;;;;;7.75;6.40;;;21.10;37.40;;;;;;5040343;28;20040;-60
2022/03/03 00:17:27;;;;;;;8.43;4.90;;;21.20;37.50;;;;;;5032296;28;20067;-60
2022/03/03 00:19:54;;;;;;;9.88;6.05;;;21.10;37.50;;;;;;5046582;28;20087;-60
2022/03/03 00:22:21;;;;;;;7.07;5.72;;;21.10;37.50;;;;;;5045025;28;20132;-60
2022/03/03 00:24:49;;;;;;;6.00;5.38;;;21.10;37.50;;;;;;5043749;28;20041;-60
2022/03/03 00:27:16;;;;;;;6.95;5.32;;;21.10;37.50;;;;;;5043626;28;20037;-61
2022/03/03 00:29:43;;;;;;;10.25;6.80;;;21.10;37.50;;;;;;5043443;28;20048;-60
2022/03/03 00:32:12;;;;;;;6.72;5.10;;;21.10;37.50;;;;;;5047277;28;20052;-60
2022/03/03 00:34:39;;;;;;;8.10;6.00;;;21.10;37.50;;;;;;5044885;28;20044;-60
2022/03/03 00:37:07;;;;;;;8.18;5.82;;;21.10;37.50;;;;;;5036456;28;20648;-60
2022/03/03 00:39:34;;;;;;;7.55;5.15;;;21.10;37.50;;;;;;5039252;28;20045;-60
2022/03/03 00:42:01;;;;;;;6.63;5.43;;;21.10;37.50;;;;;;5044987;28;20049;-60
2022/03/03 00:44:28;;;;;;;6.40;5.35;;;21.10;38.10;;;;;;5047463;28;20119;-60
2022/03/03 00:46:55;;;;;;;6.47;5.40;;;21.10;37.50;;;;;;5044639;28;20045;-61
2022/03/03 00:49:23;;;;;;;6.50;5.55;;;21.10;37.50;;;;;;5034742;28;20131;-61
2022/03/03 00:51:51;;;;;;;10.27;5.20;;;21.10;37.50;;;;;;5036601;28;20045;-60
2022/03/03 00:54:18;;;;;;;8.38;5.10;;;21.10;37.50;;;;;;5036208;28;20076;-61
2022/03/03 00:56:46;;;;;;;7.38;6.65;;;21.10;37.50;;;;;;5042701;28;20068;-60
2022/03/03 00:59:13;;;;;;;8.68;5.30;;;21.00;37.40;;;;;;5030208;28;20136;-60
2022/03/03 01:01:40;;;;;;;6.88;5.40;;;21.10;37.50;;;;;;5044268;28;20057;-59
2022/03/03 01:04:08;;;;;;;7.28;5.95;;;21.00;37.40;;;;;;5035905;28;20053;-60
2022/03/03 01:06:36;;;;;;;7.25;6.55;;;21.00;37.40;;;;;;5038983;28;20106;-60
2022/03/03 01:09:03;;;;;;;7.95;6.05;;;21.00;37.50;;;;;;5041469;28;20037;-57
2022/03/03 01:11:30;;;;;;;11.27;5.95;;;21.00;37.50;;;;;;5054415;28;20165;-61
2022/03/03 01:13:57;;;;;;;8.52;6.03;;;21.00;37.70;;;;;;5046134;28;20064;-55
2022/03/03 01:16:24;;;;;;;11.27;6.50;;;21.00;38.40;;;;;;5053655;28;20533;-50
2022/03/03 01:18:51;;;;;;;6.70;5.07;;;21.00;38.90;;;;;;5056724;28;20040;-53
2022/03/03 01:21:18;;;;;;;9.23;6.00;;;21.10;39.00;;;;;;5048247;28;20040;-54
2022/03/03 01:23:47;;;;;;;10.07;5.90;;;21.10;39.00;;;;;;5049369;28;20412;-56
2022/03/03 01:26:14;;;;;;;8.98;4.80;;;21.10;39.10;;;;;;5059533;28;20494;-54
2022/03/03 01:28:41;;;;;;;7.65;5.43;;;21.10;39.20;;;;;;5051518;28;20161;-56
2022/03/03 01:31:08;;;;;;;10.20;5.13;;;21.10;39.30;;;;;;5062170;28;20040;-54
2022/03/03 01:33:35;;;;;;;11.27;6.55;;;21.10;39.50;;;;;;5039504;28;20045;-55
2022/03/03 01:36:03;;;;;;;8.65;6.47;;;21.10;39.50;;;;;;5050270;28;20667;-50
2022/03/03 01:38:30;;;;;;;14.13;6.63;;;21.10;39.70;;;;;;5058361;28;20459;-46
2022/03/03 01:40:58;;;;;;;9.52;5.95;;;21.10;40.10;;;;;;5044632;28;20041;-58
2022/03/03 01:43:25;;;;;;;15.25;6.85;;;21.10;40.30;;;;;;5043675;28;20240;-48
2022/03/03 01:45:52;;;;;;;12.40;5.80;;;21.10;40.40;;;;;;5037074;28;20042;-44
2022/03/03 01:48:19;;;;;;;13.18;5.63;;;21.10;40.30;;;;;;5033927;28;20045;-40
2022/03/03 01:50:46;;;;;;;9.43;5.63;;;21.20;40.60;;;;;;5038502;28;20053;-48
2022/03/03 01:53:13;;;;;;;12.27;6.72;;;21.20;40.80;;;;;;5044206;28;20608;-44
2022/03/03 01:55:40;;;;;;;11.75;6.50;;;21.20;40.70;;;;;;5038849;28;20045;-51
2022/03/03 01:58:08;;;;;;;10.55;5.68;;;21.20;41.00;;;;;;5047414;28;20052;-50
2022/03/03 02:00:35;;;;;;;9.10;5.95;;;21.20;41.00;;;;;;5040601;28;20116;-48
2022/03/03 02:03:03;;;;;;;9.60;5.88;;;21.20;41.00;;;;;;5041614;28;20364;-48
2022/03/03 02:05:30;;;;;;;8.25;5.63;;;21.20;41.00;;;;;;5036658;28;20477;-50
2022/03/03 02:07:58;;;;;;;13.13;6.57;;;21.20;41.00;;;;;;5040342;28;20036;-54
2022/03/03 02:10:25;;;;;;;9.35;5.40;;;21.30;41.10;;;;;;5043328;28;20041;-51
2022/03/03 02:12:52;;;;;;;7.88;5.28;;;21.30;41.20;;;;;;5045105;28;20063;-55
2022/03/03 02:15:22;;;;;;;9.07;4.28;;;21.30;41.20;;;;;;5045319;28;20432;-49
2022/03/03 02:17:49;;;;;;;10.43;5.22;;;21.30;41.20;;;;;;5042816;28;20124;-46
2022/03/03 02:20:22;;;;;;;6.45;4.63;;;21.30;41.20;;;;;;5045374;28;20045;-53
2022/03/03 02:22:50;;;;;;;8.98;6.10;;;21.30;41.20;;;;;;5043286;28;20524;-44
2022/03/03 02:25:17;;;;;;;9.93;5.35;;;21.30;41.20;;;;;;5043120;28;20041;-42
2022/03/03 02:27:45;;;;;;;11.57;5.93;;;21.30;41.20;;;;;;4990800;28;20045;-55
2022/03/03 02:30:15;;;;;;;7.20;4.88;;;21.30;40.90;;;;;;5036915;28;20045;-59
2022/03/03 02:32:42;;;;;;;8.32;5.28;;;21.30;40.90;;;;;;5036482;28;20049;-59
2022/03/03 02:35:10;;;;;;;6.70;4.30;;;21.30;41.10;;;;;;5042042;28;20072;-57
2022/03/03 02:37:39;;;;;;;6.38;5.60;;;21.30;40.90;;;;;;5037062;28;20045;-60
2022/03/03 02:40:10;;;;;;;7.65;5.35;;;21.40;40.70;;;;;;5042489;28;20041;-59
2022/03/03 02:42:37;;;;;;;8.23;5.38;;;21.40;40.50;;;;;;5043848;28;20051;-57
2022/03/03 02:45:06;;;;;;;7.75;5.80;;;21.50;40.40;;;;;;5041536;28;20037;-59
2022/03/03 02:47:33;;;;;;;6.93;5.05;;;21.60;40.30;;;;;;5043101;28;20045;-57
2022/03/03 02:50:00;;;;;;;7.00;5.28;;;21.70;40.20;;;;;;5041592;28;20516;-58
2022/03/03 02:52:27;;;;;;;7.82;4.97;;;21.70;40.00;;;;;;5042934;28;20126;-57
2022/03/03 02:54:55;;;;;;;10.55;6.47;;;21.70;39.90;;;;;;5059780;28;20056;-60
2022/03/03 03:00:08;;;;;;;5.85;4.65;;;21.80;39.80;;;;;;5045185;28;20043;-53
2022/03/03 03:02:35;;;;;;;9.48;4.25;;;21.90;39.70;;;;;;5036015;28;20048;-57
2022/03/03 03:05:02;;;;;;;9.27;4.63;;;21.90;39.60;;;;;;5040413;28;20064;-58
2022/03/03 03:07:29;;;;;;;7.13;5.07;;;22.00;39.70;;;;;;5041639;28;20572;-57
2022/03/03 03:09:58;;;;;;;14.75;6.00;;;22.00;39.40;;;;;;5041300;28;20071;-56
2022/03/03 03:12:25;;;;;;;7.93;4.93;;;22.10;39.30;;;;;;5043164;28;20044;-56
2022/03/03 03:14:52;;;;;;;8.13;5.70;;;22.20;39.10;;;;;;5040805;28;20044;-55
2022/03/03 03:17:19;;;;;;;4.85;4.35;;;22.20;39.00;;;;;;5043970;28;20076;-57
2022/03/03 03:19:46;;;;;;;5.68;4.32;;;22.30;38.90;;;;;;5040351;28;20136;-56
2022/03/03 03:22:13;;;;;;;8.95;5.25;;;22.40;38.70;;;;;;5040861;28;20416;-55
2022/03/03 03:24:40;;;;;;;9.52;5.43;;;22.30;38.50;;;;;;5044032;28;20040;-52
2022/03/03 03:27:09;;;;;;;9.38;4.53;;;22.40;38.50;;;;;;5041511;28;20045;-56
2022/03/03 03:29:36;;;;;;;4.85;3.85;;;22.40;38.30;;;;;;5043016;28;20037;-53
2022/03/03 03:32:04;;;;;;;5.95;4.45;;;22.50;38.20;;;;;;5042104;28;20041;-55
2022/03/03 03:34:30;;;;;;;5.65;4.45;;;22.50;38.20;;;;;;5043244;28;20045;-56
2022/03/03 03:36:58;;;;;;;9.65;5.10;;;22.50;38.10;;;;;;5045275;28;20041;-56
2022/03/03 03:39:25;;;;;;;4.03;3.30;;;22.50;38.10;;;;;;5037908;28;20036;-56
2022/03/03 03:41:52;;;;;;;3.97;3.58;;;22.50;38.00;;;;;;5040717;28;20037;-56
2022/03/03 03:44:20;;;;;;;7.57;4.38;;;22.50;37.90;;;;;;5041456;28;20123;-55
2022/03/03 03:46:47;;;;;;;7.43;5.22;;;22.50;37.90;;;;;;5044146;28;20685;-57
2022/03/03 03:49:14;;;;;;;5.75;4.05;;;22.50;37.90;;;;;;5040275;28;20043;-56
2022/03/03 03:51:41;;;;;;;9.38;5.10;;;22.50;37.90;;;;;;5043685;28;20037;-54
2022/03/03 03:54:08;;;;;;;5.75;4.60;;;22.50;37.90;;;;;;5044678;28;20120;-52
2022/03/03 03:56:35;;;;;;;8.82;5.05;;;22.50;38.00;;;;;;5047330;28;20131;-56
2022/03/03 03:59:03;;;;;;;9.07;6.15;;;22.50;38.00;;;;;;5045008;28;20037;-56
2022/03/03 04:01:31;;;;;;;6.38;4.38;;;22.50;37.90;;;;;;5044781;28;20066;-57
2022/03/03 04:03:59;;;;;;;4.05;2.88;;;22.50;38.00;;;;;;5043561;28;20033;-56
2022/03/03 04:06:26;;;;;;;7.18;4.45;;;22.50;37.90;;;;;;5045611;28;20059;-54
2022/03/03 04:08:53;;;;;;;6.63;4.45;;;22.50;38.00;;;;;;5042602;28;20112;-56
2022/03/03 04:11:20;;;;;;;7.82;3.60;;;22.60;38.20;;;;;;5044016;28;20425;-57
2022/03/03 04:13:47;;;;;;;7.38;5.00;;;22.60;38.20;;;;;;5044149;28;20576;-57
2022/03/03 04:16:14;;;;;;;5.07;4.57;;;22.50;38.20;;;;;;5045425;28;20398;-56
2022/03/03 04:18:42;;;;;;;5.38;4.22;;;22.60;38.20;;;;;;5041162;28;20413;-58
2022/03/03 04:21:09;;;;;;;5.53;5.03;;;22.50;38.20;;;;;;5044263;28;20045;-57
2022/03/03 04:23:36;;;;;;;6.68;4.05;;;22.60;38.20;;;;;;5043436;28;20090;-58
2022/03/03 04:26:04;;;;;;;5.35;4.18;;;22.60;38.30;;;;;;5046482;28;20442;-58
2022/03/03 04:28:31;;;;;;;5.55;3.38;;;22.50;38.20;;;;;;5046019;28;20040;-57
2022/03/03 04:30:58;;;;;;;7.88;4.20;;;22.50;38.30;;;;;;5043125;28;20092;-57
2022/03/03 04:33:25;;;;;;;7.50;3.88;;;22.50;38.30;;;;;;5043476;28;20043;-57
2022/03/03 04:35:54;;;;;;;6.43;4.15;;;22.60;38.30;;;;;;5042458;28;20118;-57
2022/03/03 04:38:21;;;;;;;5.18;4.03;;;22.60;38.20;;;;;;5044150;28;20064;-56
2022/03/03 04:40:48;;;;;;;6.10;4.10;;;22.60;38.30;;;;;;5047994;28;20041;-57
2022/03/03 04:43:15;;;;;;;8.02;3.97;;;22.60;38.20;;;;;;5045649;28;20051;-58
2022/03/03 04:45:42;;;;;;;6.72;4.47;;;22.60;38.80;;;;;;5044009;28;20037;-56
2022/03/03 04:48:09;;;;;;;6.82;3.75;;;22.60;38.20;;;;;;5042291;28;20044;-57
2022/03/03 04:50:37;;;;;;;4.45;3.65;;;22.60;38.20;;;;;;5059155;28;20064;-56
2022/03/03 04:53:05;;;;;;;7.57;3.45;;;22.60;38.20;;;;;;5043184;28;20688;-57
2022/03/03 04:55:32;;;;;;;6.68;4.13;;;22.50;38.10;;;;;;5046822;28;20274;-57
2022/03/03 04:57:59;;;;;;;9.68;4.47;;;22.60;38.20;;;;;;5040614;28;20052;-56
2022/03/03 05:00:26;;;;;;;5.72;3.47;;;22.50;38.20;;;;;;5042935;28;20033;-54
2022/03/03 05:02:55;;;;;;;3.78;3.47;;;22.50;38.20;;;;;;5042571;28;20041;-57
2022/03/03 05:05:22;;;;;;;5.10;4.40;;;22.60;38.30;;;;;;5043389;28;20135;-57
2022/03/03 05:07:50;;;;;;;4.53;4.13;;;22.50;38.30;;;;;;5041532;28;20048;-54
2022/03/03 05:10:18;;;;;;;5.15;3.28;;;22.50;38.30;;;;;;5045915;28;20049;-56
2022/03/03 05:12:46;;;;;;;6.47;4.25;;;22.50;38.40;;;;;;5045435;28;20044;-57
2022/03/03 05:15:13;;;;;;;4.40;3.70;;;22.40;38.50;;;;;;5042317;28;20103;-56
2022/03/03 05:17:40;;;;;;;5.78;4.35;;;22.40;38.60;;;;;;5042153;28;20037;-58
2022/03/03 05:20:08;;;;;;;4.30;4.00;;;22.40;38.60;;;;;;5046398;28;20048;-56
2022/03/03 05:22:37;;;;;;;6.32;4.00;;;22.40;38.70;;;;;;5044189;28;20064;-52
2022/03/03 05:25:05;;;;;;;4.25;3.50;;;22.40;38.80;;;;;;5040358;28;20101;-58
2022/03/03 05:27:34;;;;;;;7.03;3.83;;;22.40;38.80;;;;;;5041560;28;20041;-56
2022/03/03 05:30:01;;;;;;;7.38;3.72;;;22.40;38.90;;;;;;5042864;28;20048;-56
2022/03/03 05:32:29;;;;;;;5.55;2.90;;;22.40;39.00;;;;;;5042391;28;20052;-56
2022/03/03 05:34:56;;;;;;;6.95;3.85;;;22.40;39.10;;;;;;5041143;28;20517;-54
2022/03/03 05:37:25;;;;;;;4.45;3.03;;;22.40;39.20;;;;;;5046974;28;20533;-54
2022/03/03 05:39:52;;;;;;;3.80;3.40;;;22.40;39.20;;;;;;5040161;28;20654;-54
2022/03/03 05:42:20;;;;;;;5.47;4.15;;;22.40;39.20;;;;;;5045652;28;20047;-56
2022/03/03 05:44:49;;;;;;;6.38;3.97;;;22.40;39.10;;;;;;5039035;28;20127;-57
2022/03/03 05:47:17;;;;;;;4.88;3.22;;;22.40;39.20;;;;;;5040903;28;20051;-52
2022/03/03 05:49:45;;;;;;;4.53;4.10;;;22.30;39.30;;;;;;5043604;28;20041;-56
2022/03/03 05:52:13;;;;;;;6.85;3.13;;;22.30;39.30;;;;;;5043546;28;20580;-57
2022/03/03 05:54:41;;;;;;;4.60;2.70;;;22.30;39.40;;;;;;5045819;28;20095;-57
2022/03/03 05:57:18;;;;;;;6.57;4.05;;;22.30;39.40;;;;;;5042417;28;20056;-55
2022/03/03 05:59:48;;;;;;;3.97;3.45;;;22.30;39.40;;;;;;5040127;28;20363;-57
2022/03/03 06:02:19;;;;;;;6.80;3.95;;;22.30;39.50;;;;;;5046622;28;20477;-56
2022/03/03 06:04:48;;;;;;;10.27;4.75;;;22.30;39.60;;;;;;5042136;28;20049;-56
2022/03/03 06:07:25;;;;;;;4.45;4.05;;;22.30;39.60;;;;;;5040283;28;20044;-55
2022/03/03 06:09:57;;;;;;;8.20;2.95;;;22.30;39.50;;;;;;5039496;28;20040;-55
2022/03/03 06:12:29;;;;;;;4.22;3.65;;;22.30;39.60;;;;;;5039304;28;20531;-56
2022/03/03 06:15:02;;;;;;;3.55;2.38;;;22.30;39.50;;;;;;5035728;28;20063;-55
2022/03/03 06:17:31;;;;;;;8.27;3.20;;;22.30;39.50;;;;;;5036702;28;20120;-59
2022/03/03 06:20:00;;;;;;;5.00;3.80;;;22.30;39.50;;;;;;5042568;28;20118;-56
2022/03/03 06:22:28;;;;;;;5.47;3.55;;;22.30;39.50;;;;;;5036731;28;20068;-55
2022/03/03 06:24:56;;;;;;;5.72;3.60;;;22.30;39.50;;;;;;5034895;28;20037;-55
2022/03/03 06:27:23;;;;;;;6.53;3.50;;;22.30;39.50;;;;;;5039578;28;20041;-55
2022/03/03 06:29:50;;;;;;;5.95;3.78;;;22.30;39.50;;;;;;5039435;28;20076;-55
2022/03/03 06:32:18;;;;;;;6.10;4.43;;;22.30;39.60;;;;;;5033953;28;20037;-55
2022/03/03 06:34:46;;;;;;;5.70;3.15;;;22.20;39.60;;;;;;5036218;28;20110;-54
2022/03/03 06:37:15;;;;;;;5.30;2.92;;;22.20;39.60;;;;;;5043550;28;20072;-58
2022/03/03 06:39:42;;;;;;;6.10;3.70;;;22.20;39.70;;;;;;5037115;28;20106;-55
2022/03/03 06:42:09;;;;;;;6.68;3.72;;;22.20;39.70;;;;;;5036600;28;20111;-57
2022/03/03 06:44:36;;;;;;;3.13;2.85;;;22.20;40.30;;;;;;5035282;28;20049;-53
2022/03/03 06:47:04;;;;;;;6.60;3.78;;;22.20;39.80;;;;;;5038386;28;20045;-52
2022/03/03 06:49:31;;;;;;;6.70;3.83;;;22.20;39.80;;;;;;5043118;28;20052;-51
2022/03/03 06:52:04;;;;;;;6.78;3.35;;;22.30;39.90;;;;;;5038447;28;20826;-58
2022/03/03 06:54:33;;;;;;;6.40;3.13;;;22.30;39.90;;;;;;5060584;28;20044;-55
2022/03/03 06:57:01;;;;;;;5.90;4.13;;;22.20;39.80;;;;;;5039263;28;20756;-57
2022/03/03 06:59:31;;;;;;;5.53;3.13;;;22.30;39.90;;;;;;5039330;28;20045;-57
2022/03/03 07:02:00;;;;;;;7.22;3.60;;;22.30;39.80;;;;;;5040527;28;20049;-57
2022/03/03 07:04:29;;;;;;;4.95;3.47;;;22.30;39.80;;;;;;5045938;28;20041;-57
2022/03/03 07:06:57;;;;;;;11.18;4.15;;;22.30;39.80;;;;;;5043022;28;20040;-56
2022/03/03 07:09:26;;;;;;;6.40;4.15;;;22.30;39.80;;;;;;5039220;28;20040;-58
2022/03/03 07:11:54;;;;;;;8.88;3.22;;;22.30;39.80;;;;;;5042768;28;20045;-55
2022/03/03 07:14:21;;;;;;;7.03;2.80;;;22.30;39.80;;;;;;5045836;28;20402;-56
2022/03/03 07:17:00;;;;;;;4.28;3.50;;;22.30;39.80;;;;;;5041214;28;20072;-55
2022/03/03 07:19:50;;;;;;;7.97;4.43;;;22.30;39.90;;;;;;5040940;28;20045;-52
2022/03/03 07:22:20;;;;;;;3.58;3.17;;;22.30;39.90;;;;;;5041336;28;20604;-55
2022/03/03 07:24:57;;;;;;;4.55;3.40;;;22.30;39.90;;;;;;5043000;28;20040;-56
2022/03/03 07:27:25;;;;;;;;;;;22.30;39.80;;;;;;5044226;28;20068;-54
2022/03/03 07:29:56;;;;;;;8.48;3.10;;;22.20;40.40;;;;;;5042826;28;19951;-57
2022/03/03 07:32:33;;;;;;;6.78;3.47;;;22.20;40.00;;;;;;5039864;28;20037;-57
2022/03/03 07:35:06;;;;;;;3.92;3.47;;;22.30;40.00;;;;;;5047873;28;20052;-56
2022/03/03 07:37:37;;;;;;;5.05;3.85;;;22.30;40.00;;;;;;5059161;28;20402;-58
2022/03/03 07:40:10;;;;;;;3.15;2.40;;;22.30;40.10;;;;;;5043931;28;20057;-55
2022/03/03 07:42:39;;;;;;;5.65;3.33;;;22.30;40.20;;;;;;5047313;28;20064;-52
2022/03/03 07:45:09;;;;;;;7.13;3.65;;;22.20;40.20;;;;;;5042845;28;20057;-56
2022/03/03 07:47:36;;;;;;;7.65;4.40;;;22.30;40.30;;;;;;5047216;28;20087;-56
2022/03/03 07:50:06;;;;;;;8.98;3.92;;;22.30;40.40;;;;;;5045112;28;20442;-60
2022/03/03 07:52:34;;;;;;;6.80;3.15;;;22.30;40.50;;;;;;5047596;28;20523;-55
2022/03/03 07:55:02;;;;;;;8.38;3.55;;;22.30;40.40;;;;;;5045487;28;20047;-56
2022/03/03 07:57:41;;;;;;;7.13;2.70;;;22.30;41.20;;;;;;5047113;28;20091;-53
2022/03/03 08:00:13;;;;;;;4.45;3.20;;;22.30;40.60;;;;;;5045152;28;20512;-56
2022/03/03 08:02:43;;;;;;;5.30;1.83;;;22.20;40.60;;;;;;5044324;28;20051;-54
2022/03/03 08:05:11;;;;;;;13.40;4.50;;;22.20;40.70;;;;;;5041965;28;20033;-55
2022/03/03 08:07:42;;;;;;;6.75;3.00;;;22.10;40.80;;;;;;5044275;28;20083;-56
2022/03/03 08:10:11;;;;;;;7.47;3.15;;;22.10;41.00;;;;;;5041949;28;20049;-53
2022/03/03 08:12:42;;;;;;;5.47;2.33;;;22.00;41.10;;;;;;5049389;28;20036;-53
2022/03/03 08:15:12;;;;;;;5.32;2.97;;;22.00;41.30;;;;;;5042503;28;20064;-54
2022/03/03 08:17:44;;;;;;;6.75;3.00;;;21.90;41.30;;;;;;5041915;28;20057;-55
2022/03/03 08:20:12;;;;;;;8.68;2.80;;;21.90;41.50;;;;;;5056004;28;20033;-57
2022/03/03 08:22:41;;;;;;;4.53;2.90;;;21.80;41.60;;;;;;5061222;28;20489;-58
2022/03/03 08:25:11;;;;;;;4.68;2.70;;;21.80;41.90;;;;;;5049580;28;20032;-60
2022/03/03 08:27:41;;;;;;;9.18;2.80;;;21.80;42.10;;;;;;5054362;28;20041;-60
2022/03/03 08:30:11;;;;;;;16.77;3.58;;;21.80;42.30;;;;;;5052494;28;20037;-64
2022/03/03 08:32:40;;;;;;;9.00;3.60;;;21.80;42.50;;;;;;5047540;28;20064;-66
2022/03/03 08:35:13;;;;;;;6.80;3.33;;;21.80;42.70;;;;;;5063302;28;20037;-65
2022/03/03 08:37:43;;;;;;;16.27;2.90;;;21.70;42.90;;;;;;5048974;28;20052;-67
2022/03/03 08:40:13;;;;;;;8.60;4.32;;;21.70;43.20;;;;;;5059663;28;20048;-56
2022/03/03 08:42:48;;;;;;;8.40;3.78;;;21.70;43.40;;;;;;5042859;28;20048;-57
2022/03/03 08:45:19;;;;;;;13.90;3.90;;;21.70;43.40;;;;;;5038692;28;20107;-55
2022/03/03 08:47:55;;;;;;;11.23;3.58;;;21.70;43.30;;;;;;5043030;28;20065;-57
2022/03/03 08:50:27;;;;;;;8.02;3.83;;;21.70;43.30;;;;;;5046399;28;20048;-55
2022/03/03 08:52:56;;;;;;;11.85;3.65;;;21.70;43.80;;;;;;5045623;28;20758;-59
2022/03/03 08:55:24;;;;;;;11.23;2.53;;;21.70;43.10;;;;;;5033544;28;20482;-56
2022/03/03 08:57:53;;;;;;;10.88;3.45;;;21.70;43.00;;;;;;5045211;28;20051;-55
2022/03/03 09:00:20;;;;;;;9.10;3.28;;;21.70;42.90;;;;;;5043191;28;20037;-55
2022/03/03 09:02:48;;;;;;;15.68;3.30;;;21.70;42.90;;;;;;5046847;28;20832;-58
2022/03/03 09:05:15;;;;;;;9.13;3.35;;;21.70;42.80;;;;;;5032124;28;20041;-53
2022/03/03 09:07:42;;;;;;;7.05;3.33;;;21.70;42.70;;;;;;5044110;28;20052;-56
2022/03/03 09:10:10;;;;;;;7.70;3.10;;;21.70;42.70;;;;;;5036193;28;20063;-59
2022/03/03 09:12:38;;;;;;;8.38;3.13;;;21.70;42.70;;;;;;5043790;28;20114;-61
2022/03/03 09:15:08;;;;;;;5.15;3.30;;;21.70;42.60;;;;;;5044407;28;20045;-56
2022/03/03 09:17:36;;;;;;;12.88;3.10;;;21.70;42.60;;;;;;5032846;28;20045;-56
2022/03/03 09:20:06;;;;;;;10.98;5.82;;;21.70;42.60;;;;;;5047280;28;20048;-56
2022/03/03 09:22:33;;;;;;;7.97;3.22;;;21.70;42.60;;;;;;5043709;28;20052;-57
2022/03/03 09:25:00;;;;;;;8.25;3.28;;;21.70;42.50;;;;;;5036648;28;20033;-55
2022/03/03 09:27:27;;;;;;;7.25;3.75;;;21.70;42.50;;;;;;5041968;28;20044;-54
2022/03/03 09:29:54;;;;;;;6.63;3.53;;;21.70;42.60;;;;;;5042442;28;20048;-56
2022/03/03 09:32:23;;;;;;;9.48;2.97;;;21.70;42.50;;;;;;5044485;28;20094;-56
2022/03/03 09:34:50;;;;;;;10.00;3.05;;;21.70;42.50;;;;;;5045045;28;20056;-59
2022/03/03 09:37:17;;;;;;;5.50;2.88;;;21.60;42.40;;;;;;5043104;28;20053;-55
2022/03/03 09:39:46;;;;;;;6.95;3.97;;;21.60;42.40;;;;;;5040778;28;20044;-56
2022/03/03 09:42:14;;;;;;;6.03;2.58;;;21.60;42.30;;;;;;5042408;28;20053;-55
2022/03/03 09:44:41;;;;;;;4.57;2.35;;;21.60;42.30;;;;;;5041469;28;20041;-56
2022/03/03 09:47:08;;;;;;;7.03;3.05;;;21.60;42.30;;;;;;5046494;28;20040;-57
2022/03/03 09:49:36;;;;;;;5.78;3.08;;;21.70;42.90;;;;;;5043897;28;20083;-57
2022/03/03 09:52:11;;;;;;;8.18;3.42;;;21.70;42.30;;;;;;5045189;28;20045;-58
2022/03/03 09:54:39;;;;;;;4.82;2.95;;;21.70;42.30;;;;;;5041926;28;20463;-55
2022/03/03 09:57:05;;;;;;;7.80;2.50;;;21.70;42.30;;;;;;5041771;28;20040;-56
2022/03/03 09:59:32;;;;;;;5.70;2.75;;;21.70;42.30;;;;;;5043731;28;20071;-56
2022/03/03 10:02:04;;;;;;;6.63;2.60;;;21.70;42.20;;;;;;5045072;28;20501;-54
2022/03/03 10:04:32;;;;;;;5.63;3.30;;;21.70;42.20;;;;;;5043369;28;20073;-58
2022/03/03 10:07:05;;;;;;;6.22;3.42;;;21.70;42.20;;;;;;5041316;28;20513;-52
2022/03/03 10:09:33;;;;;;;3.30;2.72;;;21.70;42.20;;;;;;5045947;28;20067;-54
2022/03/03 10:12:02;;;;;;;3.20;2.78;;;21.70;42.20;;;;;;5043933;28;20072;-56
2022/03/03 10:14:32;;;;;;;8.38;3.58;;;21.70;42.20;;;;;;5030639;28;20069;-58
2022/03/03 10:16:59;;;;;;;4.22;2.80;;;21.70;42.20;;;;;;5044820;28;20131;-54
2022/03/03 10:19:27;;;;;;;4.82;3.35;;;21.70;42.10;;;;;;5043334;28;20044;-57
2022/03/03 10:21:55;;;;;;;3.58;2.28;;;21.80;42.20;;;;;;5040887;28;20059;-55
2022/03/03 10:24:25;;;;;;;3.67;2.97;;;21.70;42.10;;;;;;5054429;28;20470;-56
2022/03/03 10:26:58;;;;;;;5.32;3.75;;;21.70;42.10;;;;;;5053190;28;20498;-56
2022/03/03 10:29:25;;;;;;;6.45;3.20;;;21.80;42.10;;;;;;5033270;28;20072;-58
2022/03/03 10:31:54;;;;;;;6.97;3.92;;;21.80;42.10;;;;;;5046350;28;20052;-58
2022/03/03 10:34:22;;;;;;;3.58;2.90;;;21.70;42.00;;;;;;5043649;28;20056;-56
2022/03/03 10:37:00;;;;;;;9.35;3.63;;;21.70;42.10;;;;;;5038360;28;20045;-53
2022/03/03 10:39:39;;;;;;;5.38;3.17;;;21.80;42.10;;;;;;5041591;28;20057;-56
2022/03/03 10:42:15;;;;;;;8.18;3.67;;;21.80;42.10;;;;;;5042535;28;20033;-56
2022/03/03 10:44:43;;;;;;;9.15;3.90;;;21.70;42.00;;;;;;5042913;28;20040;-55
2022/03/03 10:47:11;;;;;;;3.70;3.00;;;21.70;42.00;;;;;;5031199;28;20029;-55
2022/03/03 10:49:41;;;;;;;6.13;2.83;;;21.70;42.00;;;;;;5043812;28;20041;-58
2022/03/03 10:52:14;;;;;;;5.55;3.15;;;21.70;42.00;;;;;;5043215;28;20140;-54
2022/03/03 10:54:54;;;;;;;8.02;3.42;;;21.80;42.00;;;;;;5042775;28;20049;-56
2022/03/03 10:57:38;;;;;;;5.10;3.13;;;21.80;42.00;;;;;;5043213;28;20041;-58
2022/03/03 11:00:09;;;;;;;5.63;2.70;;;21.80;41.90;;;;;;5046721;28;20041;-51
2022/03/03 11:02:37;;;;;;;3.83;3.25;;;21.80;42.00;;;;;;5035505;28;20045;-57
2022/03/03 11:05:05;;;;;;;3.83;2.70;;;21.80;41.90;;;;;;5050345;28;20044;-58
2022/03/03 11:07:33;;;;;;;6.13;3.25;;;21.80;41.90;;;;;;5047810;28;20048;-57
2022/03/03 11:10:03;;;;;;;7.75;3.08;;;21.80;41.90;;;;;;5040539;28;20037;-53
2022/03/03 11:12:30;;;;;;;6.47;3.83;;;21.80;41.90;;;;;;5041320;28;20108;-55
2022/03/03 11:14:58;;;;;;;7.95;2.88;;;21.80;41.80;;;;;;5048377;28;20041;-51
2022/03/03 11:17:25;;;;;;;4.82;2.42;;;21.80;41.80;;;;;;5036936;28;20041;-53
2022/03/03 11:19:58;;;;;;;6.47;3.20;;;21.80;41.70;;;;;;5034066;28;20045;-57
2022/03/03 11:22:25;;;;;;;4.72;2.08;;;21.90;41.70;;;;;;5036040;28;20131;-55
2022/03/03 11:24:53;;;;;;;5.53;2.83;;;21.90;41.70;;;;;;5044094;28;20123;-52
2022/03/03 11:27:31;;;;;;;5.32;2.80;;;21.90;41.70;;;;;;5046459;28;20045;-58
2022/03/03 11:30:19;;;;;;;4.53;2.30;;;21.90;41.70;;;;;;5045847;28;20708;-57
2022/03/03 11:32:57;;;;;;;4.03;2.33;;;22.00;41.60;;;;;;5050024;28;20102;-56
2022/03/03 11:35:26;;;;;;;6.93;3.33;;;22.00;41.60;;;;;;5034623;28;20037;-57
2022/03/03 11:37:53;;;;;;;5.85;2.80;;;22.00;41.60;;;;;;5046475;28;20091;-56
2022/03/03 11:40:20;;;;;;;7.28;3.25;;;22.00;41.50;;;;;;5046609;28;20133;-53
2022/03/03 11:42:51;;;;;;;4.50;2.53;;;22.00;41.40;;;;;;5046060;28;20048;-56
2022/03/03 11:45:21;;;;;;;8.52;3.28;;;22.00;42.00;;;;;;5045618;28;20052;-56
2022/03/03 11:47:50;;;;;;;4.85;2.67;;;22.10;41.40;;;;;;5034905;28;20061;-54
2022/03/03 11:50:25;;;;;;;6.20;3.50;;;22.10;41.40;;;;;;5050251;28;20045;-52
2022/03/03 11:53:14;;;;;;;4.13;2.50;;;22.10;41.40;;;;;;5048890;28;20045;-54
2022/03/03 11:55:43;;;;;;;5.15;2.58;;;22.10;41.30;;;;;;5035378;28;20046;-53
2022/03/03 11:58:13;;;;;;;5.32;2.22;;;22.20;41.30;;;;;;5038328;28;20160;-55
2022/03/03 12:00:43;;;;;;;5.43;2.55;;;22.20;41.20;;;;;;5041329;28;20077;-55
2022/03/03 12:03:12;;;;;;;5.25;2.65;;;22.20;41.20;;;;;;5044842;28;20041;-56
2022/03/03 12:05:44;;;;;;;6.82;4.68;;;22.20;41.20;;;;;;5046054;28;20490;-57
2022/03/03 12:08:35;;;;;;;5.03;2.70;;;22.20;41.80;;;;;;5033928;28;20086;-53
2022/03/03 12:11:05;;;;;;;3.60;2.45;;;22.20;41.20;;;;;;5048605;28;20051;-58
2022/03/03 12:13:35;;;;;;;2.90;2.60;;;22.20;41.20;;;;;;5046594;28;20049;-54
2022/03/03 12:16:26;;;;;;;3.15;2.28;;;22.20;41.20;;;;;;5038243;28;20228;-51
2022/03/03 12:19:09;;;;;;;3.17;2.40;;;22.20;41.10;;;;;;5038267;28;20037;-54
2022/03/03 12:21:37;;;;;;;5.97;2.53;;;22.20;41.20;;;;;;5040653;28;20059;-55
2022/03/03 12:24:34;;;;;;;2.65;2.40;;;22.20;41.20;;;;;;5048764;28;20539;-55
2022/03/03 12:27:11;;;;;;;6.45;2.55;;;22.20;41.20;;;;;;5045000;28;20077;-54
2022/03/03 12:29:52;;;;;;;4.47;2.38;;;22.20;41.20;;;;;;5048525;28;20045;-54
2022/03/03 12:32:37;;;;;;;3.95;2.42;;;22.20;41.20;;;;;;5033736;28;20045;-53
2022/03/03 12:35:08;;;;;;;5.80;2.40;;;22.20;41.20;;;;;;5038322;28;20085;-53
2022/03/03 12:37:42;;;;;;;4.25;3.25;;;22.20;41.20;;;;;;5034644;28;20044;-53
2022/03/03 12:40:10;;;;;;;6.95;2.80;;;22.20;41.10;;;;;;5036368;28;20049;-57
2022/03/03 12:42:38;;;;;;;3.80;2.47;;;22.20;41.10;;;;;;5040241;28;20033;-56
2022/03/03 12:45:11;;;;;;;3.85;1.90;;;22.20;41.10;;;;;;5043651;28;20112;-52
2022/03/03 12:47:41;;;;;;;4.03;2.63;;;22.20;41.10;;;;;;5049036;28;20045;-54
2022/03/03 12:50:11;;;;;;;2.70;1.45;;;22.20;41.00;;;;;;5049071;28;20056;-55
2022/03/03 12:52:39;;;;;;;4.20;1.98;;;22.30;41.00;;;;;;5045757;28;20524;-56
2022/03/03 12:55:08;;;;;;;2.85;2.00;;;22.30;41.00;;;;;;5042917;28;20051;-54
2022/03/03 12:57:37;;;;;;;7.43;2.03;;;22.30;40.90;;;;;;5059543;28;20072;-54